Latest Weather Observations for Bunbury

IDW60801

Issued at 9:33 am WST Friday 9 December 2016 (issued every 30 minutes, with the page automatically refreshed every 10 minutes)

About weather observations | Map of weather stations | Latest weather observations for WA | Other Formats
Station Details ID: 009965 Name: BUNBURY Lat: -33.36 Lon: 115.64 Height: 5.2 m
Data from the previous 72 hours. | See also: Recent months at Bunbury
Date/Time
WST
Temp
°C
App
Temp
°C
Dew
Point
°C
Rel
Hum
%
Delta-T
°C
Wind Press
QNH
hPa
Press
MSL
hPa
Rain since
9am
mm
Dir  Spd
km/h
Gust
km/h
Spd
kts
Gust
kts
09/09:30am 26.4 24.8 8.8 33 9.6 ENE 7 15 4 8 1015.6 1015.5 0.0
09/09:00am 24.4 21.9 8.4 36 8.5 ENE 11 19 6 10 1016.0 1015.9 0.0
09/08:30am 23.1 20.3 8.4 39 7.8 ENE 13 20 7 11 1016.2 1016.1 0.0
09/08:00am 21.8 18.7 8.7 43 6.9 E 15 22 8 12 1016.6 1016.5 0.0
09/07:30am 20.4 17.2 8.4 46 6.3 E 15 24 8 13 1016.9 1016.8 0.0
09/07:00am 18.8 14.8 8.2 50 5.4 ENE 19 26 10 14 1016.8 1016.7 0.0
09/06:30am 17.5 14.2 8.1 54 4.8 ENE 15 26 8 14 1016.7 1016.6 0.0
09/06:00am 16.4 14.3 8.1 58 4.2 E 9 13 5 7 1016.5 1016.4 0.0
09/05:30am 14.4 12.7 7.7 64 3.3 E 6 7 3 4 1016.2 1016.1 0.0
09/05:00am 14.0 12.2 7.8 66 3.1 ESE 7 11 4 6 1016.0 1015.9 0.0
09/04:30am 14.7 12.4 7.5 62 3.6 E 9 17 5 9 1015.9 1015.8 0.0
09/04:00am 15.7 12.8 8.0 60 3.9 E 13 19 7 10 1015.8 1015.7 0.0
09/03:30am 15.7 13.2 8.0 60 3.9 E 11 19 6 10 1015.8 1015.7 0.0
09/03:00am 14.7 12.9 8.0 64 3.3 ESE 7 9 4 5 1015.8 1015.7 0.0
09/02:30am 15.5 13.7 8.0 61 3.8 ESE 7 9 4 5 1015.8 1015.7 0.0
09/02:00am 15.9 13.7 7.9 59 4.0 ESE 9 13 5 7 1016.0 1015.9 0.0
09/01:30am 17.0 14.5 8.2 56 4.5 ESE 11 17 6 9 1016.0 1015.9 0.0
09/01:00am 17.3 14.8 8.4 56 4.5 ESE 11 17 6 9 1016.1 1016.0 0.0
09/12:30am 17.8 15.4 8.6 55 4.7 ESE 11 15 6 8 1016.2 1016.1 0.0
09/12:00am 18.1 15.4 8.9 55 4.8 ESE 13 20 7 11 1016.3 1016.2 0.0
 
Date/Time
WST
Temp
°C
App
Temp
°C
Dew
Point
°C
Rel
Hum
%
Delta-T
°C
Wind Press
QNH
hPa
Press
MSL
hPa
Rain since
9am
mm
Dir  Spd
km/h
Gust
km/h
Spd
kts
Gust
kts
08/11:30pm 17.5 14.9 9.2 58 4.3 SE 13 17 7 9 1016.5 1016.4 0.0
08/11:00pm 17.8 15.3 9.7 59 4.3 SE 13 20 7 11 1016.6 1016.5 0.0
08/10:30pm 18.4 15.9 9.7 57 4.6 SE 13 17 7 9 1016.9 1016.8 0.0
08/10:00pm 18.9 16.2 10.2 57 4.6 SE 15 24 8 13 1016.8 1016.7 0.0
08/09:30pm 19.3 17.0 11.6 61 4.2 SSE 15 20 8 11 1016.6 1016.5 0.0
08/09:00pm 19.8 17.1 11.8 60 4.4 S 17 26 9 14 1016.5 1016.4 0.0
08/08:30pm 20.4 17.4 12.1 59 4.6 S 19 24 10 13 1016.6 1016.5 0.0
08/08:00pm 20.7 19.1 12.9 61 4.4 SSW 13 17 7 9 1016.6 1016.5 0.0
08/07:30pm 20.9 20.9 14.1 65 3.9 SSW 7 9 4 5 1016.3 1016.2 0.0
08/07:00pm 22.0 21.6 14.1 61 4.6 SSW 9 13 5 7 1016.3 1016.2 0.0
08/06:30pm 23.1 21.3 13.3 54 5.7 SW 15 20 8 11 1016.4 1016.3 0.0
08/06:00pm 23.6 21.1 12.3 49 6.4 SSW 17 24 9 13 1016.2 1016.1 0.0
08/05:30pm 24.3 22.0 11.6 45 7.2 SSW 15 22 8 12 1016.0 1015.9 0.0
08/05:00pm 24.1 22.0 12.4 48 6.7 SW 15 24 8 13 1016.2 1016.1 0.0
08/04:30pm 22.9 19.6 12.8 53 5.8 SW 22 32 12 17 1016.6 1016.5 0.0
08/04:00pm 23.5 20.5 12.5 50 6.3 WSW 20 32 11 17 1016.8 1016.7 0.0
08/03:30pm 23.9 20.9 11.9 47 6.8 SW 19 32 10 17 1016.8 1016.7 0.0
08/03:00pm 24.7 22.1 9.4 38 8.3 WSW 13 19 7 10 1017.0 1016.9 0.0
08/02:30pm 24.7 22.1 10.6 41 7.8 W 15 22 8 12 1017.4 1017.3 0.0
08/02:00pm 23.8 20.5 10.8 44 7.2 W 19 24 10 13 1017.7 1017.6 0.0
08/01:30pm 24.2 21.0 11.2 44 7.3 W 19 26 10 14 1017.9 1017.8 0.0
08/01:00pm 23.9 21.0 9.5 40 7.8 WNW 15 19 8 10 1018.2 1018.1 0.0
08/12:30pm 24.3 22.6 9.8 40 7.9 W 9 15 5 8 1018.7 1018.6 0.0
08/12:00pm 25.3 22.6 5.5 28 10.1 ESE 9 17 5 9 1019.3 1019.2 0.0
08/11:30am 24.0 21.4 6.3 32 9.1 SE 9 17 5 9 1019.9 1019.8 0.0
08/11:00am 22.4 19.3 5.4 33 8.5 E 11 20 6 11 1020.3 1020.2 0.0
08/10:30am 21.6 18.6 5.9 36 7.9 ESE 11 19 6 10 1020.8 1020.7 0.0
08/10:00am 20.9 17.9 6.1 38 7.4 ESE 11 22 6 12 1021.1 1021.0 0.0
08/09:30am 19.8 16.5 6.5 42 6.7 E 13 22 7 12 1021.6 1021.5 0.0
08/09:00am 18.2 14.1 6.4 46 5.8 ESE 17 22 9 12 1021.9 1021.8 0.2
08/08:30am 17.8 13.8 6.7 48 5.5 E 17 26 9 14 1022.1 1022.0 0.2
08/08:00am 16.7 12.7 6.5 51 5.0 ENE 17 26 9 14 1022.2 1022.1 0.2
08/07:30am 15.5 11.8 6.5 55 4.4 E 15 22 8 12 1022.1 1022.0 0.2
08/07:00am 14.7 11.5 7.0 60 3.7 E 13 19 7 10 1022.0 1021.9 0.2
08/06:30am 13.0 11.6 7.2 68 2.8 ESE 4 6 2 3 1021.8 1021.7 0.2
08/06:00am 10.9 9.3 6.3 73 2.1 E 4 6 2 3 1021.7 1021.6 0.2
08/05:30am 10.2 8.0 6.0 75 1.9 SE 7 9 4 5 1021.3 1021.2 0.2
08/05:00am 10.2 7.5 5.6 73 2.1 SE 9 13 5 7 1021.1 1021.0 0.2
08/04:30am 10.7 7.7 5.9 72 2.2 SE 11 15 6 8 1020.7 1020.6 0.2
08/04:00am 11.1 8.1 5.8 70 2.4 ESE 11 17 6 9 1020.5 1020.4 0.2
08/03:30am 11.3 7.9 5.8 69 2.6 ESE 13 20 7 11 1020.3 1020.2 0.2
08/03:00am 11.6 8.2 5.9 68 2.6 ESE 13 19 7 10 1020.3 1020.2 0.2
08/02:30am 11.9 8.2 6.2 68 2.7 ESE 15 20 8 11 1020.2 1020.1 0.2
08/02:00am 12.2 8.5 6.5 68 2.7 ESE 15 24 8 13 1020.1 1020.0 0.2
08/01:30am 12.5 8.8 6.3 66 2.9 ESE 15 20 8 11 1020.2 1020.1 0.2
08/01:00am 12.9 8.3 6.3 64 3.1 SE 20 28 11 15 1020.3 1020.2 0.2
08/12:30am 13.0 8.9 6.1 63 3.3 SE 17 24 9 13 1020.4 1020.3 0.2
08/12:00am 13.2 9.1 6.3 63 3.3 SE 17 26 9 14 1020.5 1020.4 0.2
 
Date/Time
WST
Temp
°C
App
Temp
°C
Dew
Point
°C
Rel
Hum
%
Delta-T
°C
Wind Press
QNH
hPa
Press
MSL
hPa
Rain since
9am
mm
Dir  Spd
km/h
Gust
km/h
Spd
kts
Gust
kts
07/11:30pm 13.4 9.5 7.0 65 3.1 SE 17 24 9 13 1020.8 1020.7 0.2
07/11:00pm 13.8 9.5 7.1 64 3.2 SE 19 26 10 14 1020.9 1020.8 0.2
07/10:30pm 14.3 9.8 7.1 62 3.5 SE 20 28 11 15 1020.8 1020.7 0.2
07/10:00pm 14.6 10.3 7.2 61 3.6 SSE 19 28 10 15 1020.7 1020.6 0.2
07/09:30pm 15.1 10.8 7.2 59 3.9 SSE 19 30 10 16 1020.6 1020.5 0.2
07/09:00pm 15.4 11.6 7.4 59 3.9 SSE 17 24 9 13 1020.3 1020.2 0.2
07/08:30pm 16.1 11.7 7.3 56 4.4 S 20 28 11 15 1020.0 1019.9 0.2
07/08:00pm 16.6 12.3 7.8 56 4.4 S 20 32 11 17 1019.7 1019.6 0.2
07/07:30pm 17.4 12.4 8.0 54 4.8 S 24 35 13 19 1019.3 1019.2 0.2
07/07:00pm 18.5 13.5 7.9 50 5.4 S 24 37 13 20 1018.7 1018.6 0.2
07/06:30pm 19.9 14.6 8.3 47 6.0 S 26 41 14 22 1018.1 1018.0 0.2
07/06:00pm 21.2 16.5 7.8 42 6.9 S 22 33 12 18 1017.7 1017.6 0.2
07/05:30pm 22.5 17.2 6.7 36 8.1 SSW 24 37 13 20 1017.1 1017.0 0.2
07/05:00pm 23.6 19.0 6.4 33 8.8 S 20 30 11 16 1016.7 1016.6 0.2
07/04:30pm 23.5 18.9 5.4 31 9.1 SSE 19 35 10 19 1016.5 1016.4 0.2
07/04:00pm 24.2 19.4 5.5 30 9.5 S 20 35 11 19 1016.4 1016.3 0.2
07/03:30pm 24.3 18.6 5.1 29 9.7 S 24 35 13 19 1016.4 1016.3 0.2
07/03:00pm 24.1 18.9 5.5 30 9.4 SSW 22 32 12 17 1016.5 1016.4 0.2
07/02:30pm 24.0 19.2 4.9 29 9.6 SSE 19 28 10 15 1016.6 1016.5 0.2
07/02:00pm 24.6 19.9 5.9 30 9.5 SSE 20 32 11 17 1016.6 1016.5 0.2
07/01:30pm 23.9 19.6 5.3 30 9.4 S 17 33 9 18 1016.7 1016.6 0.2
07/01:00pm 23.2 18.4 4.7 30 9.2 SSE 19 28 10 15 1016.9 1016.8 0.2
07/12:30pm 23.6 20.2 6.0 32 9.0 S 13 26 7 14 1017.1 1017.0 0.2
07/12:00pm 22.8 18.2 6.6 35 8.3 S 20 35 11 19 1017.1 1017.0 0.2
07/11:30am 23.6 19.9 8.1 37 8.2 SSW 17 30 9 16 1017.1 1017.0 0.2
07/11:00am 23.6 19.5 7.7 36 8.3 S 19 30 10 16 1017.0 1016.9 0.2
07/10:30am 21.6 17.0 6.7 38 7.6 S 20 35 11 19 1017.0 1016.9 0.2
07/10:00am 20.8 17.2 8.4 45 6.5 SSW 17 26 9 14 1017.1 1017.0 0.0
07/09:30am 21.0 16.4 8.3 44 6.6 SSW 22 32 12 17 1016.9 1016.8 0.0
07/09:00am 19.4 15.7 8.1 48 5.8 SW 17 28 9 15 1016.7 1016.6 0.2
07/08:30am 20.0 16.1 8.7 48 5.9 S 19 28 10 15 1016.7 1016.6 0.2
07/08:00am 19.0 14.8 9.8 55 4.9 SSW 22 37 12 20 1016.7 1016.6 0.2
07/07:30am 18.0 14.6 11.3 65 3.6 S 20 39 11 21 1016.6 1016.5 0.2
07/07:00am 17.3 14.4 12.2 72 2.8 SSW 19 26 10 14 1016.0 1015.9 0.2
07/06:30am 16.9 13.9 12.4 75 2.5 SSW 20 28 11 15 1015.6 1015.5 0.2
07/06:00am 16.7 14.0 12.8 78 2.2 SSW 19 28 10 15 1015.1 1015.0 0.2
07/05:30am 16.3 15.1 14.0 86 1.3 SSW 13 19 7 10 1014.7 1014.6 0.2
07/05:00am 16.7 13.1 14.3 86 1.4 WSW 26 46 14 25 1014.4 1014.3 0.2
07/04:30am 18.3 16.1 13.2 72 2.9 WSW 17 33 9 18 1013.5 1013.5 0.0
07/04:00am 17.9 15.5 11.5 66 3.5 WSW 15 26 8 14 1013.4 1013.4 0.0
07/03:30am 17.2 15.3 11.9 71 2.9 WSW 13 24 7 13 1013.4 1013.4 0.0
07/03:00am 16.8 16.5 14.3 85 1.4 SW 9 15 5 8 1013.4 1013.4 0.0
07/02:30am 16.3 16.5 14.7 90 0.9 SW 7 13 4 7 1013.3 1013.3 0.0
07/02:00am 17.6 15.5 13.7 78 2.2 WSW 17 39 9 21 1013.4 1013.4 0.0
07/01:30am 18.3 15.5 12.5 69 3.2 WSW 19 33 10 18 1013.2 1013.2 0.0
07/01:00am 18.1 15.2 11.0 63 3.8 WSW 17 30 9 16 1013.3 1013.3 0.0
07/12:30am 17.8 14.8 11.8 68 3.3 WSW 19 28 10 15 1013.5 1013.5 0.0
07/12:00am 18.3 16.5 12.1 67 3.4 W 13 20 7 11 1013.7 1013.7 0.0
 
Date/Time
WST
Temp
°C
App
Temp
°C
Dew
Point
°C
Rel
Hum
%
Delta-T
°C
Wind Press
QNH
hPa
Press
MSL
hPa
Rain since
9am
mm
Dir  Spd
km/h
Gust
km/h
Spd
kts
Gust
kts
06/11:30pm 18.1 16.4 12.5 70 3.1 WSW 13 20 7 11 1014.2 1014.1 0.0
06/11:00pm 18.2 16.7 13.1 72 2.9 WSW 13 20 7 11 1014.4 1014.3 0.0
06/10:30pm 17.9 17.4 12.6 71 3.0 W 7 15 4 8 1014.5 1014.4 0.0
06/10:00pm 18.2 16.9 12.6 70 3.1 WSW 11 17 6 9 1014.9 1014.8 0.0
06/09:30pm 18.3 16.5 13.4 73 2.8 SW 15 24 8 13 1015.1 1015.0 0.0
06/09:00pm 18.2 17.0 12.9 71 3.0 WSW 11 15 6 8 1015.0 1014.9 0.0
06/08:30pm 18.5 16.8 12.5 68 3.3 WSW 13 22 7 12 1015.0 1014.9 0.0
06/08:00pm 17.8 16.8 12.3 70 3.0 WSW 9 19 5 10 1014.8 1014.7 0.0
06/07:30pm 18.5 16.6 13.1 71 3.0 SW 15 24 8 13 1014.9 1014.8 0.0
06/07:00pm 18.5 17.0 13.1 71 3.0 WSW 13 20 7 11 1014.7 1014.6 0.0
06/06:30pm 18.3 15.4 13.0 71 3.0 WSW 20 30 11 16 1014.4 1014.3 0.0
06/06:00pm 19.1 16.3 13.3 69 3.3 WSW 20 32 11 17 1014.2 1014.1 0.0
06/05:30pm 19.7 16.7 13.6 68 3.5 W 22 33 12 18 1014.0 1013.9 0.0
06/05:00pm 19.9 16.4 13.4 66 3.7 W 24 33 13 18 1014.0 1013.9 0.0
06/04:30pm 20.4 16.8 13.1 63 4.2 W 24 32 13 17 1014.0 1013.9 0.0
06/04:00pm 20.8 17.4 12.5 59 4.7 W 22 32 12 17 1014.1 1014.0 0.0
06/03:30pm 21.1 17.6 12.3 57 5.0 W 22 32 12 17 1014.5 1014.4 0.0
06/03:00pm 21.3 18.3 11.9 55 5.3 W 19 26 10 14 1014.6 1014.5 0.0
06/02:30pm 21.3 18.0 11.6 54 5.4 WNW 20 30 11 16 1015.0 1014.9 0.0
06/02:00pm 21.4 18.2 11.4 53 5.5 W 19 24 10 13 1015.4 1015.3 0.0
06/01:30pm 21.2 18.5 11.8 55 5.2 W 17 26 9 14 1015.7 1015.6 0.0
06/01:00pm 20.9 17.7 11.3 54 5.3 WNW 19 26 10 14 1016.0 1015.9 0.0
06/12:30pm 21.1 18.6 10.9 52 5.6 W 15 24 8 13 1016.3 1016.2 0.0
06/12:00pm 20.5 18.9 11.7 57 4.9 W 11 20 6 11 1016.7 1016.6 0.0
06/11:30am 20.4 18.3 11.3 56 5.0 W 13 20 7 11 1017.0 1016.9 0.0
06/11:00am 20.3 18.8 10.4 53 5.4 W 9 19 5 10 1017.3 1017.2 0.0
06/10:30am 20.2 18.8 10.9 55 5.1 WNW 9 20 5 11 1017.6 1017.5 0.0
06/10:00am 19.3 18.0 9.8 54 5.0 WSW 7 17 4 9 1017.6 1017.5 0.0

Other Formats:

Comma delimited format used in spreadsheet applications
http://www.bom.gov.au/fwo/IDW60801/IDW60801.94604.axf

JavaScript Object Notation format (JSON) in row-major order
http://www.bom.gov.au/fwo/IDW60801/IDW60801.94604.json